Time;durP1;ratioP1;P1;durP2;ratioP2;P2;SDS_P1;SDS_P2;PMS_P1;PMS_P2;Temp;Humidity;BMP_temperature;BMP_pressure;BME280_temperature;BME280_humidity;BME280_pressure;Samples;Min_cycle;Max_cycle;Signal;HPM_P1;HPM_P2
2022/12/17 13:07:01;;;;;;;90.80;44.85;;;-0.70;99.90;;;;;;6214520;23;20020;-88
2022/12/17 13:09:35;;;;;;;92.35;44.08;;;0.30;99.90;;;;;;6187706;23;20090;-89
2022/12/17 13:12:04;;;;;;;84.50;41.72;;;-0.40;99.90;;;;;;6189353;23;20022;-88
2022/12/17 13:14:46;;;;;;;89.38;43.42;;;0.70;99.90;;;;;;6188321;23;20016;-88
2022/12/17 13:17:15;;;;;;;83.70;42.92;;;-0.30;99.90;;;;;;6188178;23;20020;-89
2022/12/17 13:19:59;;;;;;;86.57;43.40;;;-0.30;99.90;;;;;;6189337;23;20016;-89
2022/12/17 13:22:28;;;;;;;84.05;42.75;;;-0.10;99.90;;;;;;6189547;23;20057;-89
2022/12/17 13:25:11;;;;;;;80.88;41.67;;;1.20;99.90;;;;;;6187208;23;20341;-89
2022/12/17 13:27:50;;;;;;;88.85;42.53;;;-0.10;99.90;;;;;;6189295;23;20024;-89
2022/12/17 13:30:16;;;;;;;88.03;44.70;;;0.60;99.90;;;;;;6188789;23;20043;-89
2022/12/17 13:33:20;;;;;;;81.90;44.08;;;-0.10;99.90;;;;;;6188929;23;20099;-89
2022/12/17 13:36:05;;;;;;;89.85;44.40;;;-0.10;99.90;;;;;;6188424;23;20123;-88
2022/12/17 13:38:43;;;;;;;85.47;42.15;;;-0.10;99.90;;;;;;6186960;23;20034;-88
2022/12/17 13:41:15;;;;;;;82.45;42.10;;;-0.20;99.90;;;;;;6188545;23;20016;-89
2022/12/17 13:43:55;;;;;;;85.35;42.78;;;-0.20;99.90;;;;;;6190641;23;20051;-90
2022/12/17 13:46:25;;;;;;;89.18;43.53;;;-0.20;99.90;;;;;;6188617;23;20016;-89
2022/12/17 13:48:53;;;;;;;90.07;41.88;;;-0.30;99.90;;;;;;6190741;23;20344;-89
2022/12/17 13:51:21;;;;;;;83.90;43.33;;;-0.30;99.90;;;;;;6188685;23;20012;-89
2022/12/17 13:53:54;;;;;;;84.47;44.08;;;0.50;99.90;;;;;;6211458;23;20341;-89
2022/12/17 13:56:28;;;;;;;84.70;42.40;;;0.70;99.90;;;;;;6188167;23;20412;-89
2022/12/17 13:59:01;;;;;;;83.35;43.40;;;-0.50;99.90;;;;;;6213716;23;20075;-89
2022/12/17 14:01:27;;;;;;;92.63;46.73;;;-0.70;99.90;;;;;;6215337;23;20008;-89
2022/12/17 14:03:56;;;;;;;91.88;44.67;;;0.60;99.90;;;;;;6213415;23;20107;-89
2022/12/17 14:06:27;;;;;;;87.82;42.97;;;0.70;99.90;;;;;;6214696;23;20044;-89
2022/12/17 14:08:55;;;;;;;86.78;44.22;;;-0.60;99.90;;;;;;6212692;23;20020;-89
2022/12/17 14:14:29;;;;;;;91.55;45.13;;;0.40;99.90;;;;;;6215042;23;20026;-90
2022/12/17 14:16:55;;;;;;;95.13;44.90;;;-0.80;99.90;;;;;;6215847;23;20051;-90
2022/12/17 14:19:22;;;;;;;89.47;44.03;;;0.40;99.90;;;;;;6215767;23;20020;-89
2022/12/17 14:21:50;;;;;;;99.20;46.03;;;-0.90;99.90;;;;;;6189923;23;20016;-90
2022/12/17 14:24:19;;;;;;;90.07;44.67;;;-0.80;99.90;;;;;;6214568;23;20020;-90
2022/12/17 14:26:50;;;;;;;89.40;44.65;;;-0.90;99.90;;;;;;6215512;23;20015;-88
2022/12/17 14:29:22;;;;;;;98.65;45.25;;;-0.90;99.90;;;;;;6215296;23;20020;-89
2022/12/17 14:31:55;;;;;;;91.15;44.55;;;-1.10;99.90;;;;;;6216065;23;20024;-89
2022/12/17 14:34:24;;;;;;;93.28;44.20;;;-1.00;99.90;;;;;;6214661;23;20016;-89
2022/12/17 14:36:56;;;;;;;96.32;44.97;;;0.40;99.90;;;;;;6215631;23;20695;-89
2022/12/17 14:39:24;;;;;;;92.83;43.40;;;-1.00;99.90;;;;;;6214660;23;20432;-88
2022/12/17 14:44:41;;;;;;;93.70;44.55;;;-1.10;99.90;;;;;;6214856;23;20039;-89
2022/12/17 14:47:20;;;;;;;93.90;44.37;;;-1.20;99.90;;;;;;6215686;23;20024;-89
2022/12/17 14:49:58;;;;;;;93.20;45.90;;;-1.30;99.90;;;;;;6189003;23;20278;-89
2022/12/17 14:52:48;;;;;;;96.18;44.42;;;-1.20;99.90;;;;;;6216941;23;20447;-87
2022/12/17 14:55:24;;;;;;;91.00;43.15;;;-1.40;99.90;;;;;;6214634;23;20052;-86
2022/12/17 14:57:51;;;;;;;98.93;44.58;;;-1.40;99.90;;;;;;6215752;23;20016;-88
2022/12/17 15:00:18;;;;;;;96.38;44.10;;;-1.40;99.90;;;;;;6216529;23;20020;-87
2022/12/17 15:02:56;;;;;;;98.43;44.65;;;-1.40;99.90;;;;;;6215261;23;20035;-88
2022/12/17 15:05:22;;;;;;;98.25;46.40;;;-1.50;99.90;;;;;;6190149;23;20391;-87
2022/12/17 15:07:50;;;;;;;98.65;46.67;;;-1.60;99.90;;;;;;6215043;23;20020;-86
2022/12/17 15:10:19;;;;;;;102.03;45.42;;;-0.70;99.90;;;;;;6215474;23;20023;-87
2022/12/17 15:12:45;;;;;;;108.57;47.75;;;-1.70;99.90;;;;;;6215457;23;20039;-87
2022/12/17 15:15:14;;;;;;;102.55;45.28;;;-1.60;99.90;;;;;;6214782;23;20023;-83
2022/12/17 15:17:41;;;;;;;102.40;44.20;;;-1.70;99.90;;;;;;6216631;23;20345;-87
2022/12/17 15:20:33;;;;;;;101.97;45.47;;;-1.80;99.90;;;;;;6214208;23;20019;-87
2022/12/17 15:23:01;;;;;;;106.80;45.00;;;-1.70;99.90;;;;;;6215325;23;20332;-87
2022/12/17 15:25:36;;;;;;;106.85;45.92;;;-1.80;99.90;;;;;;6189183;23;20024;-88
2022/12/17 15:28:04;;;;;;;103.30;45.05;;;-1.80;99.90;;;;;;6218234;23;20004;-90
2022/12/17 15:30:31;;;;;;;103.70;44.67;;;-1.90;99.90;;;;;;6213822;23;20020;-86
2022/12/17 15:32:58;;;;;;;105.45;44.08;;;-1.90;99.90;;;;;;6217028;23;20598;-88
2022/12/17 15:35:30;;;;;;;101.95;43.85;;;-1.70;99.90;;;;;;6215571;23;20040;-87
2022/12/17 15:37:56;;;;;;;99.40;43.42;;;-1.90;99.90;;;;;;6214837;23;20099;-87
2022/12/17 15:40:29;;;;;;;96.68;42.05;;;-2.10;99.90;;;;;;6188938;23;20065;-88
2022/12/17 15:43:10;;;;;;;103.78;44.80;;;-3.00;99.90;;;;;;6215344;23;20440;-88
2022/12/17 15:45:49;;;;;;;113.25;44.47;;;-2.20;99.90;;;;;;6214711;23;20078;-87
2022/12/17 15:48:20;;;;;;;105.85;44.17;;;-2.10;99.90;;;;;;6217120;23;20027;-87
2022/12/17 15:50:48;;;;;;;117.03;45.15;;;-2.10;99.90;;;;;;6215102;23;20016;-86
2022/12/17 15:53:17;;;;;;;106.43;43.17;;;-2.10;99.90;;;;;;6215566;23;20020;-87
2022/12/17 15:55:58;;;;;;;108.80;43.50;;;-2.10;99.90;;;;;;6191081;23;20016;-88
2022/12/17 15:58:30;;;;;;;112.85;44.30;;;-2.20;99.90;;;;;;6189690;23;20024;-87
2022/12/17 16:00:59;;;;;;;110.15;43.38;;;-2.10;99.90;;;;;;6190116;23;20472;-88
2022/12/17 16:03:29;;;;;;;114.18;43.90;;;-2.70;99.90;;;;;;6214565;23;20039;-87
2022/12/17 16:06:00;;;;;;;117.13;44.83;;;-2.10;99.90;;;;;;6214354;23;20089;-87
2022/12/17 16:08:31;;;;;;;110.00;41.15;;;-2.20;99.90;;;;;;6214777;23;20008;-87
2022/12/17 16:10:57;;;;;;;109.20;42.30;;;-2.20;99.90;;;;;;6189733;23;20016;-87
2022/12/17 16:13:28;;;;;;;115.30;43.38;;;-2.20;99.90;;;;;;6214628;23;20016;-87
2022/12/17 16:15:58;;;;;;;114.72;42.67;;;-2.30;99.90;;;;;;6214879;23;20027;-88
2022/12/17 16:18:31;;;;;;;114.63;42.83;;;-2.20;99.90;;;;;;6214786;23;20043;-87
2022/12/17 16:21:05;;;;;;;116.93;42.97;;;-2.30;99.90;;;;;;6214171;23;20030;-88
2022/12/17 16:23:34;;;;;;;109.57;41.17;;;-2.30;99.90;;;;;;6188971;23;20016;-87
2022/12/17 16:26:08;;;;;;;115.70;43.42;;;-2.30;99.90;;;;;;6214444;23;20012;-86
2022/12/17 16:28:47;;;;;;;113.90;43.65;;;-2.30;99.90;;;;;;6212370;23;20024;-87
2022/12/17 16:31:19;;;;;;;117.80;42.60;;;-2.90;99.90;;;;;;6214410;23;20016;-87
2022/12/17 16:33:47;;;;;;;117.32;42.25;;;-2.30;99.90;;;;;;6213913;23;20043;-87
2022/12/17 16:36:20;;;;;;;126.95;43.88;;;-2.40;99.90;;;;;;6213826;23;20020;-87
2022/12/17 16:38:49;;;;;;;;;;;-2.40;99.90;;;;;;6214092;23;20024;-87
2022/12/17 16:41:19;;;;;;;118.90;43.33;;;-2.50;99.90;;;;;;6238974;23;19916;-87
2022/12/17 16:43:48;;;;;;;126.60;43.35;;;-2.40;99.90;;;;;;6213516;23;20016;-86
2022/12/17 16:46:45;;;;;;;119.68;43.28;;;-2.40;99.90;;;;;;6214414;23;20102;-87
2022/12/17 16:49:18;;;;;;;121.28;42.08;;;-2.30;99.90;;;;;;6164080;23;20020;-86
2022/12/17 16:51:51;;;;;;;118.70;44.08;;;-2.40;99.90;;;;;;6194428;23;20016;-87
2022/12/17 16:54:24;;;;;;;127.37;43.13;;;-2.40;99.90;;;;;;6158672;23;20016;-86
2022/12/17 16:56:54;;;;;;;118.05;41.78;;;-2.40;99.90;;;;;;6183989;23;20059;-87
2022/12/17 16:59:31;;;;;;;122.43;43.65;;;-2.40;99.90;;;;;;6184741;23;20034;-87
2022/12/17 17:02:00;;;;;;;127.57;43.53;;;-2.50;99.90;;;;;;6183686;23;20091;-85
2022/12/17 17:04:34;;;;;;;125.13;41.78;;;-2.50;99.90;;;;;;6184090;23;20060;-88
2022/12/17 17:07:03;;;;;;;124.82;42.78;;;-2.60;99.90;;;;;;6159402;23;20032;-86
2022/12/17 17:09:32;;;;;;;131.00;42.78;;;-2.50;99.90;;;;;;6157487;23;20016;-89
2022/12/17 17:12:00;;;;;;;133.35;45.30;;;-2.60;99.90;;;;;;6158943;23;20051;-84
2022/12/17 17:14:30;;;;;;;127.20;44.88;;;-2.50;99.90;;;;;;6158568;23;20070;-85
2022/12/17 17:16:58;;;;;;;131.05;43.78;;;-2.60;99.90;;;;;;6182166;23;20020;-86
2022/12/17 17:19:36;;;;;;;129.30;43.45;;;-2.50;99.90;;;;;;6182819;23;20024;-86
2022/12/17 17:22:03;;;;;;;125.68;43.08;;;-2.60;99.90;;;;;;6159287;23;20405;-85
2022/12/17 17:24:34;;;;;;;122.05;42.00;;;-2.60;99.90;;;;;;6157596;23;20020;-86
2022/12/17 17:27:09;;;;;;;125.30;43.17;;;-2.60;99.90;;;;;;6160698;23;20039;-87
2022/12/17 17:29:58;;;;;;;117.18;40.65;;;-3.20;99.90;;;;;;6184232;23;20021;-88
2022/12/17 17:32:52;;;;;;;131.52;43.50;;;-3.50;99.90;;;;;;6160141;23;20327;-86
2022/12/17 17:35:30;;;;;;;;;;;;;;;;;;;;;
2022/12/17 17:38:00;;;;;;;124.95;41.70;;;-2.70;99.90;;;;;;6157619;23;20082;-87
2022/12/17 17:40:30;;;;;;;118.03;42.03;;;-2.70;99.90;;;;;;6157635;23;20147;-84
2022/12/17 17:42:59;;;;;;;121.28;40.80;;;-2.70;99.90;;;;;;6182512;23;20024;-86
2022/12/17 17:45:39;;;;;;;116.32;40.60;;;-2.80;99.90;;;;;;6158554;23;20024;-84
2022/12/17 17:48:18;;;;;;;119.07;41.25;;;-2.70;99.90;;;;;;6183467;23;20349;-84
2022/12/17 17:51:06;;;;;;;121.47;39.13;;;-2.90;99.90;;;;;;6189772;23;20052;-84
2022/12/17 17:53:40;;;;;;;115.78;39.47;;;-2.70;99.90;;;;;;6212436;23;20024;-86
2022/12/17 17:56:45;;;;;;;112.10;38.65;;;-2.70;99.90;;;;;;6188835;23;20318;-86
2022/12/17 18:02:52;;;;;;;114.60;39.35;;;-2.70;99.90;;;;;;6139522;23;20023;-88
2022/12/17 18:05:24;;;;;;;112.07;38.15;;;-2.80;99.90;;;;;;6187985;23;20024;-86
2022/12/17 18:07:56;;;;;;;111.88;38.00;;;-2.80;99.90;;;;;;6190002;23;20392;-88
2022/12/17 18:10:25;;;;;;;111.03;37.50;;;-2.80;99.90;;;;;;6188711;23;20020;-89
2022/12/17 18:15:43;;;;;;;107.82;37.03;;;-2.80;99.90;;;;;;6215805;23;20111;-89
2022/12/17 18:18:14;;;;;;;101.60;34.95;;;-2.90;99.90;;;;;;6214636;23;20016;-87
2022/12/17 18:20:44;;;;;;;106.72;37.70;;;-2.90;99.90;;;;;;6189726;23;20135;-88
2022/12/17 18:23:16;;;;;;;104.90;36.55;;;-3.90;99.90;;;;;;6215421;23;20024;-88
2022/12/17 18:33:32;;;;;;;107.47;38.30;;;-2.90;99.90;;;;;;6221492;22;20036;-94
2022/12/17 18:36:36;;;;;;;112.35;38.08;;;-2.80;99.90;;;;;;6215358;23;20150;-95
2022/12/17 18:40:20;;;;;;;116.25;38.55;;;-3.90;99.90;;;;;;6235174;23;20075;-95
2022/12/17 18:51:43;;;;;;;110.45;38.17;;;-1.70;99.90;;;;;;6129375;23;20029;-96
2022/12/17 18:54:45;;;;;;;;;;;;;;;;;;;;;
2022/12/17 19:02:16;;;;;;;115.20;38.63;;;-2.90;99.90;;;;;;6202742;23;20035;-96
2022/12/17 19:05:29;;;;;;;117.20;39.72;;;-3.00;99.90;;;;;;6147491;23;20040;-95
2022/12/17 19:08:43;;;;;;;115.32;40.95;;;-2.90;99.90;;;;;;6108898;23;20072;-95
2022/12/17 19:12:24;;;;;;;132.18;43.15;;;-3.00;99.90;;;;;;6151079;23;20512;-94
2022/12/17 19:18:45;;;;;;;123.03;42.08;;;-2.80;99.90;;;;;;6154573;23;20025;-94
2022/12/17 19:29:31;;;;;;;108.95;40.20;;;-2.90;99.90;;;;;;6123903;23;20064;-95
2022/12/17 19:33:07;;;;;;;110.85;40.95;;;-3.00;99.90;;;;;;6157030;23;20181;-95
2022/12/17 19:37:12;;;;;;;104.43;40.05;;;-2.80;99.90;;;;;;6116007;23;20016;-96
2022/12/17 19:40:43;;;;;;;;;;;;;;;;;;;;;
2022/12/17 19:47:24;;;;;;;111.38;41.65;;;-2.90;99.90;;;;;;6204636;23;20453;-96
2022/12/17 19:50:57;;;;;;;106.85;40.35;;;-3.10;99.90;;;;;;6193310;23;20029;-95
2022/12/17 19:54:23;;;;;;;112.50;43.10;;;-2.90;99.90;;;;;;6201930;23;20067;-95
2022/12/17 20:20:34;;;;;;;;;;;;;;;;;;;;;
2022/12/17 20:26:15;;;;;;;102.05;44.85;;;-3.10;99.90;;;;;;6121055;23;20099;-94
2022/12/17 20:30:01;;;;;;;114.88;47.42;;;-3.40;99.90;;;;;;6233952;23;20067;-95
2022/12/17 20:41:25;;;;;;;115.22;48.03;;;-3.20;99.90;;;;;;6127698;23;20349;-95
2022/12/17 20:45:00;;;;;;;;;;;;;;;;;;;;;
2022/12/17 20:52:23;;;;;;;109.40;48.35;;;-3.10;99.90;;;;;;6080922;23;20022;-95
2022/12/17 20:58:31;;;;;;;119.93;49.80;;;-3.40;99.90;;;;;;6212521;23;20464;-95
2022/12/17 21:04:51;;;;;;;112.82;47.60;;;-3.20;99.90;;;;;;6175794;23;20161;-95
2022/12/17 21:08:18;;;;;;;118.65;53.03;;;-3.30;99.90;;;;;;6240601;22;20087;-95
